sensor_id;sensor_type;location;lat;lon;timestamp;temperature;humidity
43227;DHT22;28839;52.404;9.808;2023-07-08T00:02:34;17.30;99.90
43227;DHT22;28839;52.404;9.808;2023-07-08T00:09:29;17.20;99.90
43227;DHT22;28839;52.404;9.808;2023-07-08T00:16:24;17.00;99.90
43227;DHT22;28839;52.404;9.808;2023-07-08T00:23:18;17.10;99.90
43227;DHT22;28839;52.404;9.808;2023-07-08T00:30:21;16.90;99.90
43227;DHT22;28839;52.404;9.808;2023-07-08T00:37:15;16.90;99.90
43227;DHT22;28839;52.404;9.808;2023-07-08T00:44:11;16.90;99.90
43227;DHT22;28839;52.404;9.808;2023-07-08T00:51:08;16.60;99.90
43227;DHT22;28839;52.404;9.808;2023-07-08T00:58:03;16.70;99.90
43227;DHT22;28839;52.404;9.808;2023-07-08T01:05:01;16.50;99.90
43227;DHT22;28839;52.404;9.808;2023-07-08T01:11:59;16.40;99.90
43227;DHT22;28839;52.404;9.808;2023-07-08T01:18:55;16.40;99.90
43227;DHT22;28839;52.404;9.808;2023-07-08T01:25:51;16.40;99.90
43227;DHT22;28839;52.404;9.808;2023-07-08T01:32:48;16.30;99.90
43227;DHT22;28839;52.404;9.808;2023-07-08T01:39:42;16.20;99.90
43227;DHT22;28839;52.404;9.808;2023-07-08T01:46:38;16.00;99.90
43227;DHT22;28839;52.404;9.808;2023-07-08T01:53:35;15.90;99.90
43227;DHT22;28839;52.404;9.808;2023-07-08T02:00:29;15.90;99.90
43227;DHT22;28839;52.404;9.808;2023-07-08T02:07:24;15.90;99.90
43227;DHT22;28839;52.404;9.808;2023-07-08T02:14:18;15.90;99.90
43227;DHT22;28839;52.404;9.808;2023-07-08T02:21:11;15.80;99.90
43227;DHT22;28839;52.404;9.808;2023-07-08T02:28:07;15.90;99.90
43227;DHT22;28839;52.404;9.808;2023-07-08T02:35:02;15.70;99.90
43227;DHT22;28839;52.404;9.808;2023-07-08T02:41:56;15.60;99.90
43227;DHT22;28839;52.404;9.808;2023-07-08T02:48:51;15.50;99.90
43227;DHT22;28839;52.404;9.808;2023-07-08T02:55:45;15.40;99.90
43227;DHT22;28839;52.404;9.808;2023-07-08T03:02:40;15.40;99.90
43227;DHT22;28839;52.404;9.808;2023-07-08T03:09:35;15.40;99.90
43227;DHT22;28839;52.404;9.808;2023-07-08T03:16:29;15.10;99.90
43227;DHT22;28839;52.404;9.808;2023-07-08T03:23:23;15.00;99.90
43227;DHT22;28839;52.404;9.808;2023-07-08T03:30:18;15.00;99.90
43227;DHT22;28839;52.404;9.808;2023-07-08T03:37:12;14.90;99.90
43227;DHT22;28839;52.404;9.808;2023-07-08T03:44:06;14.80;99.90
43227;DHT22;28839;52.404;9.808;2023-07-08T03:51:04;14.80;99.90
43227;DHT22;28839;52.404;9.808;2023-07-08T03:57:58;14.80;99.90
43227;DHT22;28839;52.404;9.808;2023-07-08T04:04:52;14.80;99.90
43227;DHT22;28839;52.404;9.808;2023-07-08T04:11:47;14.90;99.90
43227;DHT22;28839;52.404;9.808;2023-07-08T04:18:41;14.90;99.90
43227;DHT22;28839;52.404;9.808;2023-07-08T04:25:35;15.00;99.90
43227;DHT22;28839;52.404;9.808;2023-07-08T04:32:30;15.20;99.90
43227;DHT22;28839;52.404;9.808;2023-07-08T04:39:24;15.40;99.90
43227;DHT22;28839;52.404;9.808;2023-07-08T04:46:20;15.50;99.90
43227;DHT22;28839;52.404;9.808;2023-07-08T04:53:17;15.70;99.90
43227;DHT22;28839;52.404;9.808;2023-07-08T05:00:15;15.90;99.90
43227;DHT22;28839;52.404;9.808;2023-07-08T05:07:09;16.20;99.90
43227;DHT22;28839;52.404;9.808;2023-07-08T05:14:05;16.50;99.90
43227;DHT22;28839;52.404;9.808;2023-07-08T05:20:59;16.70;99.90
43227;DHT22;28839;52.404;9.808;2023-07-08T05:27:53;17.20;99.90
43227;DHT22;28839;52.404;9.808;2023-07-08T05:34:48;17.90;99.90
43227;DHT22;28839;52.404;9.808;2023-07-08T05:41:42;18.60;99.90
43227;DHT22;28839;52.404;9.808;2023-07-08T05:48:36;18.70;99.90
43227;DHT22;28839;52.404;9.808;2023-07-08T05:55:32;19.30;99.90
43227;DHT22;28839;52.404;9.808;2023-07-08T06:02:26;19.40;99.90
43227;DHT22;28839;52.404;9.808;2023-07-08T06:09:20;19.90;99.90
43227;DHT22;28839;52.404;9.808;2023-07-08T06:16:15;19.60;99.90
43227;DHT22;28839;52.404;9.808;2023-07-08T06:23:09;19.70;99.90
43227;DHT22;28839;52.404;9.808;2023-07-08T06:30:03;19.80;99.90
43227;DHT22;28839;52.404;9.808;2023-07-08T06:36:59;20.30;99.90
43227;DHT22;28839;52.404;9.808;2023-07-08T06:43:53;21.20;99.90
43227;DHT22;28839;52.404;9.808;2023-07-08T06:50:47;22.50;99.90
43227;DHT22;28839;52.404;9.808;2023-07-08T06:57:42;23.20;99.90
43227;DHT22;28839;52.404;9.808;2023-07-08T07:04:36;23.50;99.90
43227;DHT22;28839;52.404;9.808;2023-07-08T07:11:29;24.50;99.90
43227;DHT22;28839;52.404;9.808;2023-07-08T07:18:25;24.60;99.90
43227;DHT22;28839;52.404;9.808;2023-07-08T07:25:19;25.90;99.90
43227;DHT22;28839;52.404;9.808;2023-07-08T07:32:13;25.60;99.90
43227;DHT22;28839;52.404;9.808;2023-07-08T07:39:09;25.80;99.90
43227;DHT22;28839;52.404;9.808;2023-07-08T07:46:03;26.00;99.90
43227;DHT22;28839;52.404;9.808;2023-07-08T07:52:57;27.20;99.90
43227;DHT22;28839;52.404;9.808;2023-07-08T07:59:53;27.50;99.90
43227;DHT22;28839;52.404;9.808;2023-07-08T08:06:46;27.00;99.90
43227;DHT22;28839;52.404;9.808;2023-07-08T08:13:40;27.90;99.90
43227;DHT22;28839;52.404;9.808;2023-07-08T08:20:36;28.30;99.90
43227;DHT22;28839;52.404;9.808;2023-07-08T08:27:32;29.40;99.90
43227;DHT22;28839;52.404;9.808;2023-07-08T08:34:26;29.60;99.90
43227;DHT22;28839;52.404;9.808;2023-07-08T08:41:31;28.70;99.90
43227;DHT22;28839;52.404;9.808;2023-07-08T08:48:27;29.00;99.90
43227;DHT22;28839;52.404;9.808;2023-07-08T08:55:24;30.00;99.90
43227;DHT22;28839;52.404;9.808;2023-07-08T09:02:33;31.00;99.30
43227;DHT22;28839;52.404;9.808;2023-07-08T09:09:34;30.70;99.90
43227;DHT22;28839;52.404;9.808;2023-07-08T09:16:39;29.40;99.20
43227;DHT22;28839;52.404;9.808;2023-07-08T09:23:35;30.30;99.50
43227;DHT22;28839;52.404;9.808;2023-07-08T09:30:29;30.50;97.30
43227;DHT22;28839;52.404;9.808;2023-07-08T09:37:28;30.40;97.20
43227;DHT22;28839;52.404;9.808;2023-07-08T09:44:25;30.60;98.70
43227;DHT22;28839;52.404;9.808;2023-07-08T09:51:21;31.50;98.60
43227;DHT22;28839;52.404;9.808;2023-07-08T09:58:22;30.80;98.00
43227;DHT22;28839;52.404;9.808;2023-07-08T10:05:21;31.20;98.80
43227;DHT22;28839;52.404;9.808;2023-07-08T10:12:16;30.80;96.90
43227;DHT22;28839;52.404;9.808;2023-07-08T10:19:13;31.80;97.70
43227;DHT22;28839;52.404;9.808;2023-07-08T10:26:19;31.20;95.40
43227;DHT22;28839;52.404;9.808;2023-07-08T10:33:30;31.00;94.20
43227;DHT22;28839;52.404;9.808;2023-07-08T10:40:34;31.20;95.00
43227;DHT22;28839;52.404;9.808;2023-07-08T10:47:45;31.20;93.70
43227;DHT22;28839;52.404;9.808;2023-07-08T10:55:00;30.90;93.20
43227;DHT22;28839;52.404;9.808;2023-07-08T11:02:19;31.30;92.00
43227;DHT22;28839;52.404;9.808;2023-07-08T11:09:21;31.00;92.60
43227;DHT22;28839;52.404;9.808;2023-07-08T11:16:19;30.60;92.20
43227;DHT22;28839;52.404;9.808;2023-07-08T11:23:22;31.00;91.10
43227;DHT22;28839;52.404;9.808;2023-07-08T11:30:22;31.10;90.00
43227;DHT22;28839;52.404;9.808;2023-07-08T11:37:18;31.00;89.70
43227;DHT22;28839;52.404;9.808;2023-07-08T11:44:14;30.80;89.30
43227;DHT22;28839;52.404;9.808;2023-07-08T11:51:10;31.20;90.90
43227;DHT22;28839;52.404;9.808;2023-07-08T11:58:19;31.10;86.50
43227;DHT22;28839;52.404;9.808;2023-07-08T12:05:14;30.80;85.90
43227;DHT22;28839;52.404;9.808;2023-07-08T12:12:17;31.00;82.90
43227;DHT22;28839;52.404;9.808;2023-07-08T12:19:16;31.30;88.10
43227;DHT22;28839;52.404;9.808;2023-07-08T12:26:11;31.30;79.80
43227;DHT22;28839;52.404;9.808;2023-07-08T12:33:10;31.00;76.10
43227;DHT22;28839;52.404;9.808;2023-07-08T12:40:10;31.20;79.90
43227;DHT22;28839;52.404;9.808;2023-07-08T12:47:06;31.20;79.40
43227;DHT22;28839;52.404;9.808;2023-07-08T12:54:02;30.90;77.20
43227;DHT22;28839;52.404;9.808;2023-07-08T13:00:58;30.90;80.60
43227;DHT22;28839;52.404;9.808;2023-07-08T13:07:53;31.00;77.90
43227;DHT22;28839;52.404;9.808;2023-07-08T13:14:48;31.10;81.60
43227;DHT22;28839;52.404;9.808;2023-07-08T13:21:42;31.20;75.30
43227;DHT22;28839;52.404;9.808;2023-07-08T13:28:38;31.00;80.50
43227;DHT22;28839;52.404;9.808;2023-07-08T13:35:37;30.90;76.60
43227;DHT22;28839;52.404;9.808;2023-07-08T13:42:32;30.80;77.10
43227;DHT22;28839;52.404;9.808;2023-07-08T13:49:29;30.90;74.50
43227;DHT22;28839;52.404;9.808;2023-07-08T13:56:28;30.80;76.20
43227;DHT22;28839;52.404;9.808;2023-07-08T14:03:22;31.50;71.80
43227;DHT22;28839;52.404;9.808;2023-07-08T14:10:17;31.30;69.70
43227;DHT22;28839;52.404;9.808;2023-07-08T14:17:16;31.40;74.10
43227;DHT22;28839;52.404;9.808;2023-07-08T14:24:14;30.80;74.50
43227;DHT22;28839;52.404;9.808;2023-07-08T14:31:10;31.00;75.00
43227;DHT22;28839;52.404;9.808;2023-07-08T14:38:09;31.10;76.70
43227;DHT22;28839;52.404;9.808;2023-07-08T14:45:07;31.10;77.00
43227;DHT22;28839;52.404;9.808;2023-07-08T14:52:01;31.30;73.90
43227;DHT22;28839;52.404;9.808;2023-07-08T14:58:56;31.60;74.20
43227;DHT22;28839;52.404;9.808;2023-07-08T15:05:50;31.10;74.00
43227;DHT22;28839;52.404;9.808;2023-07-08T15:12:44;31.10;76.70
43227;DHT22;28839;52.404;9.808;2023-07-08T15:19:39;31.00;73.00
43227;DHT22;28839;52.404;9.808;2023-07-08T15:26:33;31.00;74.70
43227;DHT22;28839;52.404;9.808;2023-07-08T15:33:27;31.70;72.40
43227;DHT22;28839;52.404;9.808;2023-07-08T15:40:23;31.60;73.50
43227;DHT22;28839;52.404;9.808;2023-07-08T15:47:17;31.40;75.10
43227;DHT22;28839;52.404;9.808;2023-07-08T15:54:12;31.40;72.60
43227;DHT22;28839;52.404;9.808;2023-07-08T16:01:10;30.80;72.20
43227;DHT22;28839;52.404;9.808;2023-07-08T16:08:09;31.50;71.20
43227;DHT22;28839;52.404;9.808;2023-07-08T16:15:03;31.00;72.00
43227;DHT22;28839;52.404;9.808;2023-07-08T16:22:00;31.30;73.70
43227;DHT22;28839;52.404;9.808;2023-07-08T16:28:54;31.00;70.60
43227;DHT22;28839;52.404;9.808;2023-07-08T16:35:49;30.80;70.60
43227;DHT22;28839;52.404;9.808;2023-07-08T16:42:46;30.80;68.00
43227;DHT22;28839;52.404;9.808;2023-07-08T16:49:40;30.90;71.80
43227;DHT22;28839;52.404;9.808;2023-07-08T16:56:34;30.60;70.60
43227;DHT22;28839;52.404;9.808;2023-07-08T17:03:29;30.40;72.70
43227;DHT22;28839;52.404;9.808;2023-07-08T17:10:25;30.30;75.00
43227;DHT22;28839;52.404;9.808;2023-07-08T17:17:19;30.40;71.00
43227;DHT22;28839;52.404;9.808;2023-07-08T17:24:14;30.40;70.70
43227;DHT22;28839;52.404;9.808;2023-07-08T17:31:09;29.90;74.50
43227;DHT22;28839;52.404;9.808;2023-07-08T17:38:10;29.70;71.90
43227;DHT22;28839;52.404;9.808;2023-07-08T17:45:07;29.80;72.60
43227;DHT22;28839;52.404;9.808;2023-07-08T17:52:02;29.60;71.40
43227;DHT22;28839;52.404;9.808;2023-07-08T17:58:56;29.30;74.50
43227;DHT22;28839;52.404;9.808;2023-07-08T18:05:52;29.10;74.70
43227;DHT22;28839;52.404;9.808;2023-07-08T18:12:46;29.20;75.00
43227;DHT22;28839;52.404;9.808;2023-07-08T18:19:41;29.10;75.90
43227;DHT22;28839;52.404;9.808;2023-07-08T18:26:37;28.90;76.30
43227;DHT22;28839;52.404;9.808;2023-07-08T18:33:31;28.60;78.50
43227;DHT22;28839;52.404;9.808;2023-07-08T18:40:28;28.50;79.20
43227;DHT22;28839;52.404;9.808;2023-07-08T18:47:24;28.20;80.00
43227;DHT22;28839;52.404;9.808;2023-07-08T18:54:20;27.80;84.30
43227;DHT22;28839;52.404;9.808;2023-07-08T19:01:16;27.30;89.10
43227;DHT22;28839;52.404;9.808;2023-07-08T19:08:11;26.90;92.80
43227;DHT22;28839;52.404;9.808;2023-07-08T19:15:16;26.60;97.30
43227;DHT22;28839;52.404;9.808;2023-07-08T19:22:14;26.20;98.60
43227;DHT22;28839;52.404;9.808;2023-07-08T19:29:10;26.00;99.50
43227;DHT22;28839;52.404;9.808;2023-07-08T19:36:04;26.10;97.30
43227;DHT22;28839;52.404;9.808;2023-07-08T19:42:58;25.70;99.90
43227;DHT22;28839;52.404;9.808;2023-07-08T19:49:53;25.30;99.90
43227;DHT22;28839;52.404;9.808;2023-07-08T19:56:47;25.10;99.90
43227;DHT22;28839;52.404;9.808;2023-07-08T20:03:40;24.80;99.90
43227;DHT22;28839;52.404;9.808;2023-07-08T20:10:36;24.60;99.90
43227;DHT22;28839;52.404;9.808;2023-07-08T20:17:29;24.40;99.90
43227;DHT22;28839;52.404;9.808;2023-07-08T20:24:23;24.20;99.90
43227;DHT22;28839;52.404;9.808;2023-07-08T20:31:18;23.90;99.90
43227;DHT22;28839;52.404;9.808;2023-07-08T20:38:12;23.60;99.90
43227;DHT22;28839;52.404;9.808;2023-07-08T20:45:07;23.40;99.90
43227;DHT22;28839;52.404;9.808;2023-07-08T20:52:02;23.20;99.90
43227;DHT22;28839;52.404;9.808;2023-07-08T20:58:56;22.90;99.90
43227;DHT22;28839;52.404;9.808;2023-07-08T21:05:52;22.80;99.90
43227;DHT22;28839;52.404;9.808;2023-07-08T21:12:48;22.60;99.90
43227;DHT22;28839;52.404;9.808;2023-07-08T21:19:42;22.40;99.90
43227;DHT22;28839;52.404;9.808;2023-07-08T21:26:37;22.10;99.90
43227;DHT22;28839;52.404;9.808;2023-07-08T21:33:32;22.00;99.90
43227;DHT22;28839;52.404;9.808;2023-07-08T21:40:35;21.90;99.90
43227;DHT22;28839;52.404;9.808;2023-07-08T21:47:29;21.80;99.90
43227;DHT22;28839;52.404;9.808;2023-07-08T21:54:24;21.60;99.90
43227;DHT22;28839;52.404;9.808;2023-07-08T22:01:20;21.40;99.90
43227;DHT22;28839;52.404;9.808;2023-07-08T22:08:16;21.40;99.90
43227;DHT22;28839;52.404;9.808;2023-07-08T22:15:19;21.20;99.90
43227;DHT22;28839;52.404;9.808;2023-07-08T22:22:13;21.50;99.90
43227;DHT22;28839;52.404;9.808;2023-07-08T22:29:07;21.50;99.90
43227;DHT22;28839;52.404;9.808;2023-07-08T22:36:02;21.30;99.90
43227;DHT22;28839;52.404;9.808;2023-07-08T22:42:57;21.30;99.90
43227;DHT22;28839;52.404;9.808;2023-07-08T22:49:52;21.10;99.90
43227;DHT22;28839;52.404;9.808;2023-07-08T22:56:47;21.20;99.90
43227;DHT22;28839;52.404;9.808;2023-07-08T23:03:41;21.60;99.90
43227;DHT22;28839;52.404;9.808;2023-07-08T23:10:35;21.50;99.90
43227;DHT22;28839;52.404;9.808;2023-07-08T23:17:30;21.30;99.90
43227;DHT22;28839;52.404;9.808;2023-07-08T23:24:24;21.20;99.90
43227;DHT22;28839;52.404;9.808;2023-07-08T23:31:18;21.10;99.90
43227;DHT22;28839;52.404;9.808;2023-07-08T23:38:14;21.10;99.90
43227;DHT22;28839;52.404;9.808;2023-07-08T23:45:11;20.90;99.90
43227;DHT22;28839;52.404;9.808;2023-07-08T23:52:13;21.00;99.90
43227;DHT22;28839;52.404;9.808;2023-07-08T23:59:09;20.90;99.90
